sensor_id;sensor_type;location;lat;lon;timestamp;temperature;humidity
3794;DHT22;1912;51.358;12.282;2024-01-10T04:51:08;-10.80;1.00
3794;DHT22;1912;51.358;12.282;2024-01-10T04:53:34;-10.70;1.00
3794;DHT22;1912;51.358;12.282;2024-01-10T04:55:59;-10.80;1.00
3794;DHT22;1912;51.358;12.282;2024-01-10T04:58:26;-10.80;1.00
3794;DHT22;1912;51.358;12.282;2024-01-10T05:00:52;-10.80;1.00
3794;DHT22;1912;51.358;12.282;2024-01-10T05:03:17;-10.80;1.00
3794;DHT22;1912;51.358;12.282;2024-01-10T05:05:43;-10.90;1.00
3794;DHT22;1912;51.358;12.282;2024-01-10T05:08:09;-10.90;1.00
3794;DHT22;1912;51.358;12.282;2024-01-10T05:10:34;-11.00;1.00
3794;DHT22;1912;51.358;12.282;2024-01-10T05:13:00;-11.00;1.00
3794;DHT22;1912;51.358;12.282;2024-01-10T05:15:26;-10.90;1.00
3794;DHT22;1912;51.358;12.282;2024-01-10T05:17:51;-10.80;1.00
3794;DHT22;1912;51.358;12.282;2024-01-10T05:20:17;-10.80;1.00
3794;DHT22;1912;51.358;12.282;2024-01-10T05:22:43;-10.90;1.00
3794;DHT22;1912;51.358;12.282;2024-01-10T05:25:09;-10.90;1.00
3794;DHT22;1912;51.358;12.282;2024-01-10T05:27:35;-10.90;1.00
3794;DHT22;1912;51.358;12.282;2024-01-10T05:30:00;-10.90;1.00
3794;DHT22;1912;51.358;12.282;2024-01-10T05:32:27;-10.90;1.00
3794;DHT22;1912;51.358;12.282;2024-01-10T05:34:55;-10.80;1.00
3794;DHT22;1912;51.358;12.282;2024-01-10T05:37:21;-10.90;1.00
3794;DHT22;1912;51.358;12.282;2024-01-10T05:39:47;-10.90;1.00
3794;DHT22;1912;51.358;12.282;2024-01-10T05:42:13;-10.90;1.00
3794;DHT22;1912;51.358;12.282;2024-01-10T05:44:39;-10.90;1.00
3794;DHT22;1912;51.358;12.282;2024-01-10T05:47:05;-10.90;1.00
3794;DHT22;1912;51.358;12.282;2024-01-10T05:49:31;-10.90;1.00
3794;DHT22;1912;51.358;12.282;2024-01-10T05:51:58;-10.90;1.00
3794;DHT22;1912;51.358;12.282;2024-01-10T05:54:23;-10.90;1.00
3794;DHT22;1912;51.358;12.282;2024-01-10T05:56:49;-10.90;1.00
3794;DHT22;1912;51.358;12.282;2024-01-10T05:59:15;-11.00;1.00
3794;DHT22;1912;51.358;12.282;2024-01-10T06:01:42;-11.00;1.00
3794;DHT22;1912;51.358;12.282;2024-01-10T06:04:08;-11.10;1.00
3794;DHT22;1912;51.358;12.282;2024-01-10T06:06:33;-11.00;1.00
3794;DHT22;1912;51.358;12.282;2024-01-10T06:09:00;-11.00;1.00
3794;DHT22;1912;51.358;12.282;2024-01-10T06:11:25;-11.10;1.00
3794;DHT22;1912;51.358;12.282;2024-01-10T06:13:51;-11.00;1.00
3794;DHT22;1912;51.358;12.282;2024-01-10T06:16:16;-11.10;1.00
3794;DHT22;1912;51.358;12.282;2024-01-10T06:18:42;-11.10;1.00
3794;DHT22;1912;51.358;12.282;2024-01-10T06:21:08;-11.10;1.00
3794;DHT22;1912;51.358;12.282;2024-01-10T06:23:34;-11.10;1.00
3794;DHT22;1912;51.358;12.282;2024-01-10T06:25:59;-11.10;1.00
3794;DHT22;1912;51.358;12.282;2024-01-10T06:28:25;-11.00;1.00
3794;DHT22;1912;51.358;12.282;2024-01-10T06:30:51;-11.00;1.00
3794;DHT22;1912;51.358;12.282;2024-01-10T06:33:17;-11.10;1.00
3794;DHT22;1912;51.358;12.282;2024-01-10T06:35:45;-11.00;1.00
3794;DHT22;1912;51.358;12.282;2024-01-10T06:38:11;-11.10;1.00
3794;DHT22;1912;51.358;12.282;2024-01-10T06:40:36;-11.10;1.00
3794;DHT22;1912;51.358;12.282;2024-01-10T06:43:05;-11.00;1.00
3794;DHT22;1912;51.358;12.282;2024-01-10T06:45:33;-11.00;1.00
3794;DHT22;1912;51.358;12.282;2024-01-10T06:47:59;-11.00;1.00
3794;DHT22;1912;51.358;12.282;2024-01-10T06:50:25;-11.00;1.00
3794;DHT22;1912;51.358;12.282;2024-01-10T06:52:50;-10.90;1.00
3794;DHT22;1912;51.358;12.282;2024-01-10T06:55:16;-10.90;1.00
3794;DHT22;1912;51.358;12.282;2024-01-10T06:57:43;-10.90;1.00
3794;DHT22;1912;51.358;12.282;2024-01-10T07:00:09;-10.90;1.00
3794;DHT22;1912;51.358;12.282;2024-01-10T07:02:37;-11.00;1.00
3794;DHT22;1912;51.358;12.282;2024-01-10T07:05:07;-11.00;1.00
3794;DHT22;1912;51.358;12.282;2024-01-10T07:07:33;-11.10;1.00
3794;DHT22;1912;51.358;12.282;2024-01-10T07:10:01;-11.10;1.00
3794;DHT22;1912;51.358;12.282;2024-01-10T07:12:30;-11.10;1.00
3794;DHT22;1912;51.358;12.282;2024-01-10T07:14:57;-11.00;1.00
3794;DHT22;1912;51.358;12.282;2024-01-10T07:17:23;-11.00;1.00
3794;DHT22;1912;51.358;12.282;2024-01-10T07:19:48;-11.00;1.00
3794;DHT22;1912;51.358;12.282;2024-01-10T07:22:14;-11.00;1.00
3794;DHT22;1912;51.358;12.282;2024-01-10T07:24:40;-10.90;1.00
3794;DHT22;1912;51.358;12.282;2024-01-10T07:27:06;-10.90;1.00
3794;DHT22;1912;51.358;12.282;2024-01-10T07:29:34;-10.90;1.00
3794;DHT22;1912;51.358;12.282;2024-01-10T07:31:59;-10.90;1.00
3794;DHT22;1912;51.358;12.282;2024-01-10T07:34:25;-10.80;1.00
3794;DHT22;1912;51.358;12.282;2024-01-10T07:36:51;-10.80;1.00
3794;DHT22;1912;51.358;12.282;2024-01-10T07:39:17;-10.70;1.00
3794;DHT22;1912;51.358;12.282;2024-01-10T07:41:44;-10.70;1.00
3794;DHT22;1912;51.358;12.282;2024-01-10T07:44:09;-10.70;1.00
3794;DHT22;1912;51.358;12.282;2024-01-10T07:46:35;-10.70;1.00
3794;DHT22;1912;51.358;12.282;2024-01-10T07:49:03;-10.60;1.00
3794;DHT22;1912;51.358;12.282;2024-01-10T07:51:30;-10.60;1.00
3794;DHT22;1912;51.358;12.282;2024-01-10T07:53:56;-10.70;1.00
3794;DHT22;1912;51.358;12.282;2024-01-10T07:56:22;-10.60;1.00
3794;DHT22;1912;51.358;12.282;2024-01-10T07:58:48;-10.60;1.00
3794;DHT22;1912;51.358;12.282;2024-01-10T08:01:14;-10.60;1.00
3794;DHT22;1912;51.358;12.282;2024-01-10T08:03:40;-10.40;1.00
3794;DHT22;1912;51.358;12.282;2024-01-10T08:06:06;-10.30;1.00
3794;DHT22;1912;51.358;12.282;2024-01-10T08:08:32;-10.10;1.00
3794;DHT22;1912;51.358;12.282;2024-01-10T08:10:57;-10.00;1.00
3794;DHT22;1912;51.358;12.282;2024-01-10T08:13:24;-9.80;1.00
3794;DHT22;1912;51.358;12.282;2024-01-10T08:15:49;-9.60;1.00
3794;DHT22;1912;51.358;12.282;2024-01-10T08:18:16;-9.40;1.00
3794;DHT22;1912;51.358;12.282;2024-01-10T08:20:41;-9.30;1.00
3794;DHT22;1912;51.358;12.282;2024-01-10T08:23:07;-9.10;1.00
3794;DHT22;1912;51.358;12.282;2024-01-10T08:25:33;-9.00;1.00
3794;DHT22;1912;51.358;12.282;2024-01-10T08:27:59;-8.80;1.00
3794;DHT22;1912;51.358;12.282;2024-01-10T08:30:25;-8.60;1.00
3794;DHT22;1912;51.358;12.282;2024-01-10T08:32:52;-8.50;1.00
3794;DHT22;1912;51.358;12.282;2024-01-10T08:35:17;-8.30;1.00
3794;DHT22;1912;51.358;12.282;2024-01-10T08:37:44;-8.20;1.00
3794;DHT22;1912;51.358;12.282;2024-01-10T08:40:11;-8.10;1.00
3794;DHT22;1912;51.358;12.282;2024-01-10T08:42:40;-7.90;1.00
3794;DHT22;1912;51.358;12.282;2024-01-10T08:45:07;-7.70;1.00
3794;DHT22;1912;51.358;12.282;2024-01-10T08:47:35;-7.80;1.00
3794;DHT22;1912;51.358;12.282;2024-01-10T08:50:02;-7.50;1.00
3794;DHT22;1912;51.358;12.282;2024-01-10T08:52:30;-7.50;1.00
3794;DHT22;1912;51.358;12.282;2024-01-10T08:54:57;-7.30;1.00
3794;DHT22;1912;51.358;12.282;2024-01-10T08:57:22;-7.30;1.00
3794;DHT22;1912;51.358;12.282;2024-01-10T08:59:48;-7.30;1.00
3794;DHT22;1912;51.358;12.282;2024-01-10T09:02:14;-7.10;1.00
3794;DHT22;1912;51.358;12.282;2024-01-10T09:04:40;-7.10;1.00
3794;DHT22;1912;51.358;12.282;2024-01-10T09:07:07;-7.00;1.00
3794;DHT22;1912;51.358;12.282;2024-01-10T09:09:34;-6.80;1.00
3794;DHT22;1912;51.358;12.282;2024-01-10T09:12:00;-6.70;1.00
3794;DHT22;1912;51.358;12.282;2024-01-10T09:14:26;-6.70;1.00
3794;DHT22;1912;51.358;12.282;2024-01-10T09:16:51;-6.70;1.00
3794;DHT22;1912;51.358;12.282;2024-01-10T09:19:18;-6.90;1.00
3794;DHT22;1912;51.358;12.282;2024-01-10T09:21:43;-6.70;1.00
3794;DHT22;1912;51.358;12.282;2024-01-10T09:24:09;-6.80;1.00
3794;DHT22;1912;51.358;12.282;2024-01-10T09:26:36;-6.60;1.00
3794;DHT22;1912;51.358;12.282;2024-01-10T09:29:02;-6.20;1.00
3794;DHT22;1912;51.358;12.282;2024-01-10T09:31:28;-6.40;1.00
3794;DHT22;1912;51.358;12.282;2024-01-10T09:33:53;-6.60;1.00
3794;DHT22;1912;51.358;12.282;2024-01-10T09:36:19;-6.40;1.00
3794;DHT22;1912;51.358;12.282;2024-01-10T09:38:44;-6.20;1.00
3794;DHT22;1912;51.358;12.282;2024-01-10T09:41:11;-6.30;1.00
3794;DHT22;1912;51.358;12.282;2024-01-10T09:43:39;-6.50;1.00
3794;DHT22;1912;51.358;12.282;2024-01-10T09:46:06;-6.30;1.00
3794;DHT22;1912;51.358;12.282;2024-01-10T09:48:33;-6.40;1.00
3794;DHT22;1912;51.358;12.282;2024-01-10T09:50:59;-6.20;1.00
3794;DHT22;1912;51.358;12.282;2024-01-10T09:53:26;-6.20;1.00
3794;DHT22;1912;51.358;12.282;2024-01-10T09:55:52;-6.20;1.00
3794;DHT22;1912;51.358;12.282;2024-01-10T09:58:23;-6.20;1.00
3794;DHT22;1912;51.358;12.282;2024-01-10T10:00:50;-6.20;1.00
3794;DHT22;1912;51.358;12.282;2024-01-10T10:03:17;-6.10;1.00
3794;DHT22;1912;51.358;12.282;2024-01-10T10:05:44;-6.30;1.00
3794;DHT22;1912;51.358;12.282;2024-01-10T10:08:14;-6.20;1.00
3794;DHT22;1912;51.358;12.282;2024-01-10T10:10:49;-6.20;1.00
3794;DHT22;1912;51.358;12.282;2024-01-10T10:13:25;-6.20;1.00
3794;DHT22;1912;51.358;12.282;2024-01-10T10:16:01;-6.30;1.00
3794;DHT22;1912;51.358;12.282;2024-01-10T10:18:28;-6.10;1.00
3794;DHT22;1912;51.358;12.282;2024-01-10T10:21:25;-6.10;1.00
3794;DHT22;1912;51.358;12.282;2024-01-10T10:23:59;-6.10;1.00
3794;DHT22;1912;51.358;12.282;2024-01-10T10:26:27;-6.00;1.00
3794;DHT22;1912;51.358;12.282;2024-01-10T10:28:54;-6.00;1.00
3794;DHT22;1912;51.358;12.282;2024-01-10T10:31:21;-6.00;1.00
3794;DHT22;1912;51.358;12.282;2024-01-10T10:33:48;-6.00;1.00
3794;DHT22;1912;51.358;12.282;2024-01-10T10:36:18;-5.90;1.00
3794;DHT22;1912;51.358;12.282;2024-01-10T10:38:47;-5.80;1.00
3794;DHT22;1912;51.358;12.282;2024-01-10T10:41:14;-5.70;1.00
3794;DHT22;1912;51.358;12.282;2024-01-10T10:43:40;-5.70;1.00
3794;DHT22;1912;51.358;12.282;2024-01-10T10:46:11;-5.80;1.00
3794;DHT22;1912;51.358;12.282;2024-01-10T10:48:40;-5.80;1.00
3794;DHT22;1912;51.358;12.282;2024-01-10T10:51:08;-5.70;1.00
3794;DHT22;1912;51.358;12.282;2024-01-10T10:53:36;-5.70;1.00
3794;DHT22;1912;51.358;12.282;2024-01-10T10:56:06;-5.70;1.00
3794;DHT22;1912;51.358;12.282;2024-01-10T10:58:38;-5.70;1.00
3794;DHT22;1912;51.358;12.282;2024-01-10T11:01:06;-5.60;1.00
3794;DHT22;1912;51.358;12.282;2024-01-10T11:03:38;-5.70;1.00
3794;DHT22;1912;51.358;12.282;2024-01-10T11:06:06;-5.60;1.00
3794;DHT22;1912;51.358;12.282;2024-01-10T11:08:38;-5.60;1.00
3794;DHT22;1912;51.358;12.282;2024-01-10T11:11:13;-5.70;1.00
3794;DHT22;1912;51.358;12.282;2024-01-10T11:14:18;-5.70;1.00
3794;DHT22;1912;51.358;12.282;2024-01-10T11:17:09;-5.60;1.00
3794;DHT22;1912;51.358;12.282;2024-01-10T11:25:58;-5.50;1.00
3794;DHT22;1912;51.358;12.282;2024-01-10T11:28:31;-5.50;1.00
3794;DHT22;1912;51.358;12.282;2024-01-10T11:30:56;-5.40;1.00
3794;DHT22;1912;51.358;12.282;2024-01-10T11:33:31;-5.40;1.00
3794;DHT22;1912;51.358;12.282;2024-01-10T11:36:15;-5.40;1.00
3794;DHT22;1912;51.358;12.282;2024-01-10T11:38:44;-5.30;1.00
3794;DHT22;1912;51.358;12.282;2024-01-10T11:41:35;-5.30;1.00
3794;DHT22;1912;51.358;12.282;2024-01-10T11:46:49;-5.40;1.00
3794;DHT22;1912;51.358;12.282;2024-01-10T11:49:20;-5.30;1.00
3794;DHT22;1912;51.358;12.282;2024-01-10T11:51:57;-5.20;1.00
3794;DHT22;1912;51.358;12.282;2024-01-10T11:54:37;-5.20;1.00
3794;DHT22;1912;51.358;12.282;2024-01-10T11:57:08;-5.20;1.00
3794;DHT22;1912;51.358;12.282;2024-01-10T11:59:35;-5.20;1.00
3794;DHT22;1912;51.358;12.282;2024-01-10T12:02:01;-5.20;1.00
3794;DHT22;1912;51.358;12.282;2024-01-10T12:04:31;-5.10;1.00
3794;DHT22;1912;51.358;12.282;2024-01-10T12:06:57;-5.00;1.00
3794;DHT22;1912;51.358;12.282;2024-01-10T12:09:23;-5.00;1.00
3794;DHT22;1912;51.358;12.282;2024-01-10T12:11:50;-5.00;1.00
3794;DHT22;1912;51.358;12.282;2024-01-10T12:14:16;-5.00;1.00
3794;DHT22;1912;51.358;12.282;2024-01-10T12:16:42;-4.90;1.00
3794;DHT22;1912;51.358;12.282;2024-01-10T12:19:08;-4.90;1.00
3794;DHT22;1912;51.358;12.282;2024-01-10T12:21:34;-4.80;1.00
3794;DHT22;1912;51.358;12.282;2024-01-10T12:23:59;-4.70;1.00
3794;DHT22;1912;51.358;12.282;2024-01-10T12:26:25;-4.70;1.00
3794;DHT22;1912;51.358;12.282;2024-01-10T12:28:58;-4.70;1.00
3794;DHT22;1912;51.358;12.282;2024-01-10T12:31:28;-4.70;1.00
3794;DHT22;1912;51.358;12.282;2024-01-10T12:33:57;-4.70;1.00
3794;DHT22;1912;51.358;12.282;2024-01-10T12:36:24;-4.60;1.00
3794;DHT22;1912;51.358;12.282;2024-01-10T12:38:50;-4.60;1.00
3794;DHT22;1912;51.358;12.282;2024-01-10T12:41:18;-4.60;1.00
3794;DHT22;1912;51.358;12.282;2024-01-10T12:43:49;-4.60;1.00
3794;DHT22;1912;51.358;12.282;2024-01-10T12:46:16;-4.50;1.00
3794;DHT22;1912;51.358;12.282;2024-01-10T12:48:41;-4.50;1.00
3794;DHT22;1912;51.358;12.282;2024-01-10T12:51:11;-4.40;1.00
3794;DHT22;1912;51.358;12.282;2024-01-10T12:53:39;-4.40;1.00
3794;DHT22;1912;51.358;12.282;2024-01-10T12:56:08;-4.40;1.00
3794;DHT22;1912;51.358;12.282;2024-01-10T12:58:36;-4.30;1.00
3794;DHT22;1912;51.358;12.282;2024-01-10T13:01:03;-4.20;1.00
3794;DHT22;1912;51.358;12.282;2024-01-10T13:03:29;-4.20;1.00
3794;DHT22;1912;51.358;12.282;2024-01-10T13:05:55;-4.10;1.00
3794;DHT22;1912;51.358;12.282;2024-01-10T13:08:21;-4.10;1.00
3794;DHT22;1912;51.358;12.282;2024-01-10T13:10:47;-4.00;1.00
3794;DHT22;1912;51.358;12.282;2024-01-10T13:13:14;-4.00;1.00
3794;DHT22;1912;51.358;12.282;2024-01-10T13:15:41;-4.00;1.00
3794;DHT22;1912;51.358;12.282;2024-01-10T13:18:07;-4.10;1.00
3794;DHT22;1912;51.358;12.282;2024-01-10T13:20:35;-4.00;1.00
3794;DHT22;1912;51.358;12.282;2024-01-10T13:23:01;-3.90;1.00
3794;DHT22;1912;51.358;12.282;2024-01-10T13:25:27;-3.90;1.00
3794;DHT22;1912;51.358;12.282;2024-01-10T13:27:53;-3.90;1.00
3794;DHT22;1912;51.358;12.282;2024-01-10T13:30:19;-3.90;1.00
3794;DHT22;1912;51.358;12.282;2024-01-10T13:32:48;-3.90;1.00
3794;DHT22;1912;51.358;12.282;2024-01-10T13:35:15;-3.80;1.00
3794;DHT22;1912;51.358;12.282;2024-01-10T13:37:43;-3.80;1.00
3794;DHT22;1912;51.358;12.282;2024-01-10T13:40:10;-3.80;1.00
3794;DHT22;1912;51.358;12.282;2024-01-10T13:42:40;-3.80;1.00
3794;DHT22;1912;51.358;12.282;2024-01-10T13:45:07;-3.80;1.00
3794;DHT22;1912;51.358;12.282;2024-01-10T13:47:36;-3.80;1.00
3794;DHT22;1912;51.358;12.282;2024-01-10T13:50:03;-3.80;1.00
3794;DHT22;1912;51.358;12.282;2024-01-10T13:52:31;-3.80;1.00
3794;DHT22;1912;51.358;12.282;2024-01-10T13:54:57;-3.70;1.00
3794;DHT22;1912;51.358;12.282;2024-01-10T13:57:23;-3.70;1.00
3794;DHT22;1912;51.358;12.282;2024-01-10T13:59:49;-3.70;1.00
3794;DHT22;1912;51.358;12.282;2024-01-10T14:02:14;-3.60;1.00
3794;DHT22;1912;51.358;12.282;2024-01-10T14:04:41;-3.60;1.00
3794;DHT22;1912;51.358;12.282;2024-01-10T14:07:07;-3.50;1.00
3794;DHT22;1912;51.358;12.282;2024-01-10T14:09:32;-3.40;1.00
3794;DHT22;1912;51.358;12.282;2024-01-10T14:11:58;-3.50;1.00
3794;DHT22;1912;51.358;12.282;2024-01-10T14:14:24;-3.50;1.00
3794;DHT22;1912;51.358;12.282;2024-01-10T14:16:49;-3.40;1.00
3794;DHT22;1912;51.358;12.282;2024-01-10T14:19:15;-3.40;1.00
3794;DHT22;1912;51.358;12.282;2024-01-10T14:21:44;-3.40;1.00
3794;DHT22;1912;51.358;12.282;2024-01-10T14:24:11;-3.40;1.00
3794;DHT22;1912;51.358;12.282;2024-01-10T14:26:37;-3.30;1.00
3794;DHT22;1912;51.358;12.282;2024-01-10T14:29:02;-3.30;1.00
3794;DHT22;1912;51.358;12.282;2024-01-10T14:31:28;-3.40;1.00
3794;DHT22;1912;51.358;12.282;2024-01-10T14:33:54;-3.40;1.00
3794;DHT22;1912;51.358;12.282;2024-01-10T14:36:20;-3.40;1.00
3794;DHT22;1912;51.358;12.282;2024-01-10T14:38:46;-3.40;1.00
3794;DHT22;1912;51.358;12.282;2024-01-10T14:41:12;-3.40;1.00
3794;DHT22;1912;51.358;12.282;2024-01-10T14:43:37;-3.40;1.00
3794;DHT22;1912;51.358;12.282;2024-01-10T14:46:04;-3.50;1.00
3794;DHT22;1912;51.358;12.282;2024-01-10T14:48:33;-3.50;1.00
3794;DHT22;1912;51.358;12.282;2024-01-10T14:51:01;-3.50;1.00
3794;DHT22;1912;51.358;12.282;2024-01-10T14:53:27;-3.50;1.00
3794;DHT22;1912;51.358;12.282;2024-01-10T14:55:53;-3.60;1.00
3794;DHT22;1912;51.358;12.282;2024-01-10T14:58:19;-3.60;1.00
3794;DHT22;1912;51.358;12.282;2024-01-10T15:00:45;-3.60;1.00
3794;DHT22;1912;51.358;12.282;2024-01-10T15:03:11;-3.70;1.00
3794;DHT22;1912;51.358;12.282;2024-01-10T15:05:39;-3.70;1.00
3794;DHT22;1912;51.358;12.282;2024-01-10T15:08:05;-3.70;1.00
3794;DHT22;1912;51.358;12.282;2024-01-10T15:10:33;-3.70;1.00
3794;DHT22;1912;51.358;12.282;2024-01-10T15:12:59;-3.70;1.00
3794;DHT22;1912;51.358;12.282;2024-01-10T15:15:25;-3.80;1.00
3794;DHT22;1912;51.358;12.282;2024-01-10T15:17:51;-3.80;1.00
3794;DHT22;1912;51.358;12.282;2024-01-10T15:20:16;-3.80;1.00
3794;DHT22;1912;51.358;12.282;2024-01-10T15:22:42;-3.90;1.00
3794;DHT22;1912;51.358;12.282;2024-01-10T15:25:08;-3.90;1.00
3794;DHT22;1912;51.358;12.282;2024-01-10T15:27:34;-4.00;1.00
3794;DHT22;1912;51.358;12.282;2024-01-10T15:30:00;-4.10;1.00
3794;DHT22;1912;51.358;12.282;2024-01-10T15:32:26;-4.10;1.00
3794;DHT22;1912;51.358;12.282;2024-01-10T15:34:53;-4.10;1.00
3794;DHT22;1912;51.358;12.282;2024-01-10T15:37:19;-4.10;1.00
3794;DHT22;1912;51.358;12.282;2024-01-10T15:39:45;-4.10;1.00
3794;DHT22;1912;51.358;12.282;2024-01-10T15:42:11;-4.20;1.00
3794;DHT22;1912;51.358;12.282;2024-01-10T15:44:39;-4.20;1.00
3794;DHT22;1912;51.358;12.282;2024-01-10T15:47:08;-4.30;1.00
3794;DHT22;1912;51.358;12.282;2024-01-10T15:49:34;-4.40;1.00
3794;DHT22;1912;51.358;12.282;2024-01-10T15:52:01;-4.40;1.00
3794;DHT22;1912;51.358;12.282;2024-01-10T15:54:30;-4.50;1.00
3794;DHT22;1912;51.358;12.282;2024-01-10T15:57:04;-4.60;1.00
3794;DHT22;1912;51.358;12.282;2024-01-10T15:59:30;-4.60;1.00
3794;DHT22;1912;51.358;12.282;2024-01-10T16:01:55;-4.70;1.00
3794;DHT22;1912;51.358;12.282;2024-01-10T16:04:21;-4.70;1.00
3794;DHT22;1912;51.358;12.282;2024-01-10T16:06:47;-4.70;1.00
3794;DHT22;1912;51.358;12.282;2024-01-10T16:09:12;-4.70;1.00
3794;DHT22;1912;51.358;12.282;2024-01-10T16:11:42;-4.80;1.00
3794;DHT22;1912;51.358;12.282;2024-01-10T16:14:08;-4.90;1.00
3794;DHT22;1912;51.358;12.282;2024-01-10T16:16:34;-4.90;1.00
3794;DHT22;1912;51.358;12.282;2024-01-10T16:19:03;-5.00;1.00
3794;DHT22;1912;51.358;12.282;2024-01-10T16:21:29;-5.00;1.00
3794;DHT22;1912;51.358;12.282;2024-01-10T16:23:55;-5.10;1.00
3794;DHT22;1912;51.358;12.282;2024-01-10T16:26:21;-5.10;1.00
3794;DHT22;1912;51.358;12.282;2024-01-10T16:28:47;-5.10;1.00
3794;DHT22;1912;51.358;12.282;2024-01-10T16:31:13;-5.20;1.00
3794;DHT22;1912;51.358;12.282;2024-01-10T16:33:39;-5.20;1.00
3794;DHT22;1912;51.358;12.282;2024-01-10T16:36:05;-5.20;1.00
3794;DHT22;1912;51.358;12.282;2024-01-10T16:38:30;-5.30;1.00
3794;DHT22;1912;51.358;12.282;2024-01-10T16:40:56;-5.30;1.00
3794;DHT22;1912;51.358;12.282;2024-01-10T16:43:23;-5.30;1.00
3794;DHT22;1912;51.358;12.282;2024-01-10T16:45:50;-5.40;1.00
3794;DHT22;1912;51.358;12.282;2024-01-10T16:48:16;-5.40;1.00
3794;DHT22;1912;51.358;12.282;2024-01-10T16:50:42;-5.40;1.00
3794;DHT22;1912;51.358;12.282;2024-01-10T16:53:08;-5.40;1.00
3794;DHT22;1912;51.358;12.282;2024-01-10T16:55:33;-5.40;1.00
3794;DHT22;1912;51.358;12.282;2024-01-10T16:57:59;-5.50;1.00
3794;DHT22;1912;51.358;12.282;2024-01-10T17:00:25;-5.50;1.00
3794;DHT22;1912;51.358;12.282;2024-01-10T17:02:50;-5.50;1.00
3794;DHT22;1912;51.358;12.282;2024-01-10T17:05:16;-5.60;1.00
3794;DHT22;1912;51.358;12.282;2024-01-10T17:07:42;-5.60;1.00
3794;DHT22;1912;51.358;12.282;2024-01-10T17:10:08;-5.60;1.00
3794;DHT22;1912;51.358;12.282;2024-01-10T17:12:33;-5.70;1.00
3794;DHT22;1912;51.358;12.282;2024-01-10T17:14:59;-5.70;1.00
3794;DHT22;1912;51.358;12.282;2024-01-10T17:17:26;-5.70;1.00
3794;DHT22;1912;51.358;12.282;2024-01-10T17:19:52;-5.70;1.00
3794;DHT22;1912;51.358;12.282;2024-01-10T17:22:18;-5.70;1.00
3794;DHT22;1912;51.358;12.282;2024-01-10T17:24:44;-5.80;1.00
3794;DHT22;1912;51.358;12.282;2024-01-10T17:27:10;-5.80;1.00
3794;DHT22;1912;51.358;12.282;2024-01-10T17:29:35;-5.90;1.00
3794;DHT22;1912;51.358;12.282;2024-01-10T17:32:01;-5.90;1.00
3794;DHT22;1912;51.358;12.282;2024-01-10T17:34:27;-6.00;1.00
3794;DHT22;1912;51.358;12.282;2024-01-10T17:36:55;-6.10;1.00
3794;DHT22;1912;51.358;12.282;2024-01-10T17:39:20;-6.10;1.00
3794;DHT22;1912;51.358;12.282;2024-01-10T17:41:46;-6.10;1.00
3794;DHT22;1912;51.358;12.282;2024-01-10T17:44:13;-6.20;1.00
3794;DHT22;1912;51.358;12.282;2024-01-10T17:46:38;-6.10;1.00
3794;DHT22;1912;51.358;12.282;2024-01-10T17:49:04;-6.10;1.00
3794;DHT22;1912;51.358;12.282;2024-01-10T17:51:30;-6.20;1.00
3794;DHT22;1912;51.358;12.282;2024-01-10T17:53:55;-6.20;1.00
3794;DHT22;1912;51.358;12.282;2024-01-10T17:56:21;-6.20;1.00
3794;DHT22;1912;51.358;12.282;2024-01-10T17:58:47;-6.30;1.00
3794;DHT22;1912;51.358;12.282;2024-01-10T18:01:13;-6.30;1.00
3794;DHT22;1912;51.358;12.282;2024-01-10T18:03:39;-6.40;1.00
3794;DHT22;1912;51.358;12.282;2024-01-10T18:06:04;-6.40;1.00
3794;DHT22;1912;51.358;12.282;2024-01-10T18:08:30;-6.40;1.00
3794;DHT22;1912;51.358;12.282;2024-01-10T18:10:56;-6.50;1.00
3794;DHT22;1912;51.358;12.282;2024-01-10T18:13:22;-6.50;1.00
3794;DHT22;1912;51.358;12.282;2024-01-10T18:15:48;-6.50;1.00
3794;DHT22;1912;51.358;12.282;2024-01-10T18:18:14;-6.50;1.00
3794;DHT22;1912;51.358;12.282;2024-01-10T18:20:40;-6.50;1.00
3794;DHT22;1912;51.358;12.282;2024-01-10T18:23:05;-6.60;1.00
3794;DHT22;1912;51.358;12.282;2024-01-10T18:25:31;-6.80;1.00
3794;DHT22;1912;51.358;12.282;2024-01-10T18:27:57;-6.90;1.00
3794;DHT22;1912;51.358;12.282;2024-01-10T18:30:23;-6.90;1.00
3794;DHT22;1912;51.358;12.282;2024-01-10T18:32:50;-6.80;1.00
3794;DHT22;1912;51.358;12.282;2024-01-10T18:35:17;-6.90;1.00
3794;DHT22;1912;51.358;12.282;2024-01-10T18:37:46;-6.90;1.00
3794;DHT22;1912;51.358;12.282;2024-01-10T18:40:13;-6.90;1.00
3794;DHT22;1912;51.358;12.282;2024-01-10T18:42:39;-6.90;1.00
3794;DHT22;1912;51.358;12.282;2024-01-10T18:45:06;-6.90;1.00
3794;DHT22;1912;51.358;12.282;2024-01-10T18:47:32;-7.00;1.00
3794;DHT22;1912;51.358;12.282;2024-01-10T18:49:58;-7.00;1.00
3794;DHT22;1912;51.358;12.282;2024-01-10T18:52:24;-7.00;1.00
3794;DHT22;1912;51.358;12.282;2024-01-10T18:54:50;-7.00;1.00
3794;DHT22;1912;51.358;12.282;2024-01-10T18:57:16;-7.00;1.00
3794;DHT22;1912;51.358;12.282;2024-01-10T18:59:43;-7.00;1.00
3794;DHT22;1912;51.358;12.282;2024-01-10T19:02:09;-7.00;1.00
3794;DHT22;1912;51.358;12.282;2024-01-10T19:04:35;-7.00;1.00
3794;DHT22;1912;51.358;12.282;2024-01-10T19:07:01;-7.00;1.00
3794;DHT22;1912;51.358;12.282;2024-01-10T19:09:28;-7.10;1.00
3794;DHT22;1912;51.358;12.282;2024-01-10T19:11:53;-7.10;1.00
3794;DHT22;1912;51.358;12.282;2024-01-10T19:14:19;-7.20;1.00
3794;DHT22;1912;51.358;12.282;2024-01-10T19:16:44;-7.20;1.00
3794;DHT22;1912;51.358;12.282;2024-01-10T19:19:10;-7.30;1.00
3794;DHT22;1912;51.358;12.282;2024-01-10T19:21:36;-7.30;1.00
3794;DHT22;1912;51.358;12.282;2024-01-10T19:24:02;-7.20;1.00
3794;DHT22;1912;51.358;12.282;2024-01-10T19:26:28;-7.20;1.00
3794;DHT22;1912;51.358;12.282;2024-01-10T19:28:54;-7.30;1.00
3794;DHT22;1912;51.358;12.282;2024-01-10T19:31:20;-7.30;1.00
3794;DHT22;1912;51.358;12.282;2024-01-10T19:33:46;-7.30;1.00
3794;DHT22;1912;51.358;12.282;2024-01-10T19:36:16;-7.40;1.00
3794;DHT22;1912;51.358;12.282;2024-01-10T19:38:43;-7.40;1.00
3794;DHT22;1912;51.358;12.282;2024-01-10T19:41:23;-7.40;1.00
3794;DHT22;1912;51.358;12.282;2024-01-10T19:43:50;-7.40;1.00
3794;DHT22;1912;51.358;12.282;2024-01-10T19:46:17;-7.50;1.00
3794;DHT22;1912;51.358;12.282;2024-01-10T19:48:44;-7.50;1.00
3794;DHT22;1912;51.358;12.282;2024-01-10T19:51:11;-7.50;1.00
3794;DHT22;1912;51.358;12.282;2024-01-10T19:53:37;-7.50;1.00
3794;DHT22;1912;51.358;12.282;2024-01-10T19:56:03;-7.60;1.00
3794;DHT22;1912;51.358;12.282;2024-01-10T19:58:29;-7.60;1.00
3794;DHT22;1912;51.358;12.282;2024-01-10T20:00:56;-7.80;1.00
3794;DHT22;1912;51.358;12.282;2024-01-10T20:03:22;-7.80;1.00
3794;DHT22;1912;51.358;12.282;2024-01-10T20:05:48;-7.80;1.00
3794;DHT22;1912;51.358;12.282;2024-01-10T20:08:14;-7.90;1.00
3794;DHT22;1912;51.358;12.282;2024-01-10T20:10:40;-7.90;1.00
3794;DHT22;1912;51.358;12.282;2024-01-10T20:13:06;-7.80;1.00
3794;DHT22;1912;51.358;12.282;2024-01-10T20:15:35;-7.90;1.00
3794;DHT22;1912;51.358;12.282;2024-01-10T20:18:00;-7.90;1.00
3794;DHT22;1912;51.358;12.282;2024-01-10T20:20:26;-8.00;1.00
3794;DHT22;1912;51.358;12.282;2024-01-10T20:22:55;-7.90;1.00
3794;DHT22;1912;51.358;12.282;2024-01-10T20:25:21;-7.90;1.00
3794;DHT22;1912;51.358;12.282;2024-01-10T20:27:50;-8.00;1.00
3794;DHT22;1912;51.358;12.282;2024-01-10T20:30:16;-8.00;1.00
3794;DHT22;1912;51.358;12.282;2024-01-10T20:32:43;-8.00;1.00
3794;DHT22;1912;51.358;12.282;2024-01-10T20:35:09;-8.10;1.00
3794;DHT22;1912;51.358;12.282;2024-01-10T20:37:34;-8.10;1.00
3794;DHT22;1912;51.358;12.282;2024-01-10T20:40:01;-8.20;1.00
3794;DHT22;1912;51.358;12.282;2024-01-10T20:42:29;-8.20;1.00
3794;DHT22;1912;51.358;12.282;2024-01-10T20:44:56;-8.30;1.00
3794;DHT22;1912;51.358;12.282;2024-01-10T20:47:22;-8.20;1.00
3794;DHT22;1912;51.358;12.282;2024-01-10T20:49:56;-8.20;1.00
3794;DHT22;1912;51.358;12.282;2024-01-10T20:52:22;-8.30;1.00
3794;DHT22;1912;51.358;12.282;2024-01-10T20:54:49;-8.40;1.00